sensor_id;sensor_type;location;lat;lon;timestamp;P1;durP1;ratioP1;P2;durP2;ratioP2
31770;SDS011;18343;50.152;8.182;2023-02-27T00:02:30;3.80;;;1.50;;
31770;SDS011;18343;50.152;8.182;2023-02-27T00:05:14;8.05;;;1.70;;
31770;SDS011;18343;50.152;8.182;2023-02-27T00:08:00;3.67;;;1.60;;
31770;SDS011;18343;50.152;8.182;2023-02-27T00:10:45;3.53;;;1.33;;
31770;SDS011;18343;50.152;8.182;2023-02-27T00:13:29;5.30;;;1.90;;
31770;SDS011;18343;50.152;8.182;2023-02-27T00:16:14;3.65;;;1.30;;
31770;SDS011;18343;50.152;8.182;2023-02-27T00:19:00;7.68;;;2.17;;
31770;SDS011;18343;50.152;8.182;2023-02-27T00:21:45;4.00;;;1.75;;
31770;SDS011;18343;50.152;8.182;2023-02-27T00:24:30;4.57;;;1.45;;
31770;SDS011;18343;50.152;8.182;2023-02-27T00:27:15;1.92;;;1.33;;
31770;SDS011;18343;50.152;8.182;2023-02-27T00:30:00;4.65;;;1.67;;
31770;SDS011;18343;50.152;8.182;2023-02-27T00:32:45;5.32;;;2.42;;
31770;SDS011;18343;50.152;8.182;2023-02-27T00:35:32;4.47;;;2.10;;
31770;SDS011;18343;50.152;8.182;2023-02-27T00:38:16;6.43;;;2.25;;
31770;SDS011;18343;50.152;8.182;2023-02-27T00:41:02;8.30;;;1.83;;
31770;SDS011;18343;50.152;8.182;2023-02-27T00:43:47;4.63;;;1.77;;
31770;SDS011;18343;50.152;8.182;2023-02-27T00:46:32;5.75;;;1.45;;
31770;SDS011;18343;50.152;8.182;2023-02-27T00:49:17;2.70;;;1.30;;
31770;SDS011;18343;50.152;8.182;2023-02-27T00:52:04;4.13;;;1.48;;
31770;SDS011;18343;50.152;8.182;2023-02-27T00:54:49;5.38;;;1.55;;
31770;SDS011;18343;50.152;8.182;2023-02-27T00:57:34;6.13;;;2.05;;
31770;SDS011;18343;50.152;8.182;2023-02-27T01:00:19;5.28;;;1.88;;
31770;SDS011;18343;50.152;8.182;2023-02-27T01:03:04;3.13;;;1.65;;
31770;SDS011;18343;50.152;8.182;2023-02-27T01:05:50;8.38;;;2.33;;
31770;SDS011;18343;50.152;8.182;2023-02-27T01:08:36;7.75;;;2.10;;
31770;SDS011;18343;50.152;8.182;2023-02-27T01:11:21;6.28;;;2.70;;
31770;SDS011;18343;50.152;8.182;2023-02-27T01:14:06;8.70;;;3.22;;
31770;SDS011;18343;50.152;8.182;2023-02-27T01:16:51;9.75;;;3.08;;
31770;SDS011;18343;50.152;8.182;2023-02-27T01:19:36;6.50;;;3.05;;
31770;SDS011;18343;50.152;8.182;2023-02-27T01:22:21;8.25;;;3.28;;
31770;SDS011;18343;50.152;8.182;2023-02-27T01:25:07;5.32;;;2.20;;
31770;SDS011;18343;50.152;8.182;2023-02-27T01:27:52;7.10;;;2.40;;
31770;SDS011;18343;50.152;8.182;2023-02-27T01:30:37;5.65;;;2.38;;
31770;SDS011;18343;50.152;8.182;2023-02-27T01:33:23;7.43;;;2.35;;
31770;SDS011;18343;50.152;8.182;2023-02-27T01:36:07;5.82;;;1.90;;
31770;SDS011;18343;50.152;8.182;2023-02-27T01:38:55;6.82;;;1.88;;
31770;SDS011;18343;50.152;8.182;2023-02-27T01:41:42;3.35;;;1.95;;
31770;SDS011;18343;50.152;8.182;2023-02-27T01:44:27;4.57;;;1.88;;
31770;SDS011;18343;50.152;8.182;2023-02-27T01:47:13;2.47;;;1.58;;
31770;SDS011;18343;50.152;8.182;2023-02-27T01:49:58;6.47;;;1.88;;
31770;SDS011;18343;50.152;8.182;2023-02-27T01:52:43;7.53;;;1.90;;
31770;SDS011;18343;50.152;8.182;2023-02-27T01:55:33;10.13;;;1.90;;
31770;SDS011;18343;50.152;8.182;2023-02-27T01:58:22;3.75;;;1.52;;
31770;SDS011;18343;50.152;8.182;2023-02-27T02:01:07;4.97;;;1.50;;
31770;SDS011;18343;50.152;8.182;2023-02-27T02:03:54;4.38;;;1.60;;
31770;SDS011;18343;50.152;8.182;2023-02-27T02:06:44;2.42;;;1.40;;
31770;SDS011;18343;50.152;8.182;2023-02-27T02:09:33;5.28;;;1.30;;
31770;SDS011;18343;50.152;8.182;2023-02-27T02:12:24;4.28;;;1.42;;
31770;SDS011;18343;50.152;8.182;2023-02-27T02:15:14;3.45;;;1.48;;
31770;SDS011;18343;50.152;8.182;2023-02-27T02:18:02;6.47;;;1.85;;
31770;SDS011;18343;50.152;8.182;2023-02-27T02:24:46;5.60;;;1.45;;
31770;SDS011;18343;50.152;8.182;2023-02-27T02:28:15;4.53;;;1.65;;
31770;SDS011;18343;50.152;8.182;2023-02-27T02:31:38;4.80;;;1.75;;
31770;SDS011;18343;50.152;8.182;2023-02-27T02:42:00;3.33;;;1.40;;
31770;SDS011;18343;50.152;8.182;2023-02-27T02:45:02;5.68;;;1.83;;
31770;SDS011;18343;50.152;8.182;2023-02-27T02:47:59;6.40;;;1.70;;
31770;SDS011;18343;50.152;8.182;2023-02-27T02:50:53;5.80;;;1.92;;
31770;SDS011;18343;50.152;8.182;2023-02-27T02:53:47;5.30;;;1.83;;
31770;SDS011;18343;50.152;8.182;2023-02-27T02:56:41;4.80;;;1.95;;
31770;SDS011;18343;50.152;8.182;2023-02-27T02:59:34;8.38;;;2.50;;
31770;SDS011;18343;50.152;8.182;2023-02-27T03:02:23;3.25;;;1.65;;
31770;SDS011;18343;50.152;8.182;2023-02-27T03:05:14;3.95;;;1.85;;
31770;SDS011;18343;50.152;8.182;2023-02-27T03:08:07;6.07;;;2.22;;
31770;SDS011;18343;50.152;8.182;2023-02-27T03:11:00;3.72;;;2.08;;
31770;SDS011;18343;50.152;8.182;2023-02-27T03:13:55;5.95;;;2.90;;
31770;SDS011;18343;50.152;8.182;2023-02-27T03:16:45;7.47;;;2.85;;
31770;SDS011;18343;50.152;8.182;2023-02-27T03:19:38;4.88;;;2.00;;
31770;SDS011;18343;50.152;8.182;2023-02-27T03:22:30;6.75;;;2.85;;
31770;SDS011;18343;50.152;8.182;2023-02-27T03:25:18;7.43;;;2.60;;
31770;SDS011;18343;50.152;8.182;2023-02-27T03:28:08;5.38;;;1.75;;
31770;SDS011;18343;50.152;8.182;2023-02-27T03:31:00;3.80;;;2.10;;
31770;SDS011;18343;50.152;8.182;2023-02-27T03:33:51;4.82;;;1.85;;
31770;SDS011;18343;50.152;8.182;2023-02-27T03:36:42;3.63;;;1.60;;
31770;SDS011;18343;50.152;8.182;2023-02-27T03:39:33;3.83;;;1.60;;
31770;SDS011;18343;50.152;8.182;2023-02-27T03:42:28;6.15;;;2.33;;
31770;SDS011;18343;50.152;8.182;2023-02-27T03:45:20;5.35;;;1.90;;
31770;SDS011;18343;50.152;8.182;2023-02-27T03:48:16;5.80;;;1.95;;
31770;SDS011;18343;50.152;8.182;2023-02-27T03:51:02;7.70;;;2.92;;
31770;SDS011;18343;50.152;8.182;2023-02-27T03:53:48;6.25;;;2.45;;
31770;SDS011;18343;50.152;8.182;2023-02-27T03:56:40;7.63;;;2.50;;
31770;SDS011;18343;50.152;8.182;2023-02-27T03:59:32;6.97;;;2.42;;
31770;SDS011;18343;50.152;8.182;2023-02-27T04:02:18;4.10;;;2.22;;
31770;SDS011;18343;50.152;8.182;2023-02-27T04:05:06;4.63;;;1.85;;
31770;SDS011;18343;50.152;8.182;2023-02-27T04:07:57;2.30;;;1.70;;
31770;SDS011;18343;50.152;8.182;2023-02-27T04:11:24;3.05;;;1.60;;
31770;SDS011;18343;50.152;8.182;2023-02-27T04:14:35;9.10;;;1.88;;
31770;SDS011;18343;50.152;8.182;2023-02-27T04:17:32;4.32;;;2.03;;
31770;SDS011;18343;50.152;8.182;2023-02-27T04:20:35;4.47;;;2.08;;
31770;SDS011;18343;50.152;8.182;2023-02-27T04:23:27;5.18;;;2.35;;
31770;SDS011;18343;50.152;8.182;2023-02-27T04:26:24;3.55;;;1.38;;
31770;SDS011;18343;50.152;8.182;2023-02-27T04:29:15;6.65;;;1.77;;
31770;SDS011;18343;50.152;8.182;2023-02-27T04:32:09;6.47;;;2.03;;
31770;SDS011;18343;50.152;8.182;2023-02-27T04:35:03;2.63;;;1.60;;
31770;SDS011;18343;50.152;8.182;2023-02-27T04:37:57;7.20;;;2.15;;
31770;SDS011;18343;50.152;8.182;2023-02-27T04:40:48;4.28;;;2.00;;
31770;SDS011;18343;50.152;8.182;2023-02-27T04:43:38;4.57;;;1.83;;
31770;SDS011;18343;50.152;8.182;2023-02-27T04:46:25;3.13;;;1.40;;
31770;SDS011;18343;50.152;8.182;2023-02-27T04:49:13;5.40;;;1.95;;
31770;SDS011;18343;50.152;8.182;2023-02-27T04:52:03;5.30;;;1.95;;
31770;SDS011;18343;50.152;8.182;2023-02-27T04:54:56;8.65;;;1.85;;
31770;SDS011;18343;50.152;8.182;2023-02-27T04:57:47;4.72;;;1.73;;
31770;SDS011;18343;50.152;8.182;2023-02-27T05:00:36;6.50;;;2.25;;
31770;SDS011;18343;50.152;8.182;2023-02-27T05:03:27;6.20;;;1.90;;
31770;SDS011;18343;50.152;8.182;2023-02-27T05:06:17;5.43;;;2.20;;
31770;SDS011;18343;50.152;8.182;2023-02-27T05:09:08;8.27;;;2.05;;
31770;SDS011;18343;50.152;8.182;2023-02-27T05:12:04;9.30;;;3.05;;
31770;SDS011;18343;50.152;8.182;2023-02-27T05:14:58;12.10;;;3.65;;
31770;SDS011;18343;50.152;8.182;2023-02-27T05:17:49;10.35;;;3.50;;
31770;SDS011;18343;50.152;8.182;2023-02-27T05:20:42;7.47;;;3.45;;
31770;SDS011;18343;50.152;8.182;2023-02-27T05:23:38;6.75;;;2.90;;
31770;SDS011;18343;50.152;8.182;2023-02-27T05:26:39;4.63;;;2.53;;
31770;SDS011;18343;50.152;8.182;2023-02-27T05:29:50;5.55;;;2.92;;
31770;SDS011;18343;50.152;8.182;2023-02-27T05:32:38;4.32;;;2.72;;
31770;SDS011;18343;50.152;8.182;2023-02-27T05:35:30;5.78;;;2.63;;
31770;SDS011;18343;50.152;8.182;2023-02-27T05:38:22;7.53;;;2.90;;
31770;SDS011;18343;50.152;8.182;2023-02-27T05:41:13;7.95;;;2.50;;
31770;SDS011;18343;50.152;8.182;2023-02-27T05:44:05;7.18;;;2.92;;
31770;SDS011;18343;50.152;8.182;2023-02-27T05:46:57;10.15;;;2.85;;
31770;SDS011;18343;50.152;8.182;2023-02-27T05:49:45;5.15;;;2.70;;
31770;SDS011;18343;50.152;8.182;2023-02-27T05:52:34;5.35;;;2.67;;
31770;SDS011;18343;50.152;8.182;2023-02-27T05:55:21;4.95;;;2.75;;
31770;SDS011;18343;50.152;8.182;2023-02-27T05:58:11;5.20;;;2.53;;
31770;SDS011;18343;50.152;8.182;2023-02-27T06:01:03;5.22;;;2.22;;
31770;SDS011;18343;50.152;8.182;2023-02-27T06:03:50;6.57;;;2.75;;
31770;SDS011;18343;50.152;8.182;2023-02-27T06:06:34;7.53;;;2.78;;
31770;SDS011;18343;50.152;8.182;2023-02-27T06:09:19;7.95;;;2.67;;
31770;SDS011;18343;50.152;8.182;2023-02-27T06:12:04;11.25;;;2.10;;
31770;SDS011;18343;50.152;8.182;2023-02-27T06:14:49;3.25;;;2.20;;
31770;SDS011;18343;50.152;8.182;2023-02-27T06:17:35;6.65;;;2.72;;
31770;SDS011;18343;50.152;8.182;2023-02-27T06:20:20;6.75;;;2.95;;
31770;SDS011;18343;50.152;8.182;2023-02-27T06:23:05;9.18;;;3.45;;
31770;SDS011;18343;50.152;8.182;2023-02-27T06:25:50;10.65;;;3.75;;
31770;SDS011;18343;50.152;8.182;2023-02-27T06:28:35;10.60;;;4.97;;
31770;SDS011;18343;50.152;8.182;2023-02-27T06:31:19;7.57;;;2.67;;
31770;SDS011;18343;50.152;8.182;2023-02-27T06:34:05;5.60;;;2.45;;
31770;SDS011;18343;50.152;8.182;2023-02-27T06:36:50;7.57;;;2.03;;
31770;SDS011;18343;50.152;8.182;2023-02-27T06:39:34;3.58;;;1.70;;
31770;SDS011;18343;50.152;8.182;2023-02-27T06:42:19;7.63;;;1.92;;
31770;SDS011;18343;50.152;8.182;2023-02-27T06:45:04;4.45;;;1.75;;
31770;SDS011;18343;50.152;8.182;2023-02-27T06:47:50;5.15;;;2.10;;
31770;SDS011;18343;50.152;8.182;2023-02-27T06:50:36;9.57;;;3.30;;
31770;SDS011;18343;50.152;8.182;2023-02-27T06:53:21;16.00;;;4.78;;
31770;SDS011;18343;50.152;8.182;2023-02-27T06:56:07;8.48;;;3.65;;
31770;SDS011;18343;50.152;8.182;2023-02-27T06:58:51;4.93;;;2.53;;
31770;SDS011;18343;50.152;8.182;2023-02-27T07:01:36;4.15;;;2.20;;
31770;SDS011;18343;50.152;8.182;2023-02-27T07:04:21;4.07;;;2.20;;
31770;SDS011;18343;50.152;8.182;2023-02-27T07:07:07;4.13;;;1.85;;
31770;SDS011;18343;50.152;8.182;2023-02-27T07:09:53;6.30;;;1.98;;
31770;SDS011;18343;50.152;8.182;2023-02-27T07:12:38;2.97;;;1.77;;
31770;SDS011;18343;50.152;8.182;2023-02-27T07:15:23;6.55;;;1.85;;
31770;SDS011;18343;50.152;8.182;2023-02-27T07:18:08;4.15;;;1.85;;
31770;SDS011;18343;50.152;8.182;2023-02-27T07:20:52;8.13;;;2.53;;
31770;SDS011;18343;50.152;8.182;2023-02-27T07:23:40;6.07;;;2.35;;
31770;SDS011;18343;50.152;8.182;2023-02-27T07:26:25;4.38;;;2.05;;
31770;SDS011;18343;50.152;8.182;2023-02-27T07:29:10;8.60;;;2.33;;
31770;SDS011;18343;50.152;8.182;2023-02-27T07:31:55;6.13;;;2.47;;
31770;SDS011;18343;50.152;8.182;2023-02-27T07:34:39;5.55;;;2.70;;
31770;SDS011;18343;50.152;8.182;2023-02-27T07:37:39;4.93;;;2.80;;
31770;SDS011;18343;50.152;8.182;2023-02-27T07:40:32;6.15;;;2.45;;
31770;SDS011;18343;50.152;8.182;2023-02-27T07:43:24;5.03;;;2.13;;
31770;SDS011;18343;50.152;8.182;2023-02-27T07:46:12;4.80;;;2.60;;
31770;SDS011;18343;50.152;8.182;2023-02-27T07:48:57;8.88;;;1.90;;
31770;SDS011;18343;50.152;8.182;2023-02-27T07:51:42;6.40;;;2.58;;
31770;SDS011;18343;50.152;8.182;2023-02-27T07:54:33;5.82;;;2.65;;
31770;SDS011;18343;50.152;8.182;2023-02-27T07:57:20;4.30;;;2.08;;
31770;SDS011;18343;50.152;8.182;2023-02-27T08:00:05;5.57;;;2.58;;
31770;SDS011;18343;50.152;8.182;2023-02-27T08:02:52;4.60;;;2.33;;
31770;SDS011;18343;50.152;8.182;2023-02-27T08:05:36;5.10;;;1.92;;
31770;SDS011;18343;50.152;8.182;2023-02-27T08:08:21;3.08;;;2.15;;
31770;SDS011;18343;50.152;8.182;2023-02-27T08:11:05;3.40;;;2.13;;
31770;SDS011;18343;50.152;8.182;2023-02-27T08:13:51;2.83;;;2.25;;
31770;SDS011;18343;50.152;8.182;2023-02-27T08:16:36;4.82;;;1.90;;
31770;SDS011;18343;50.152;8.182;2023-02-27T08:19:20;4.55;;;2.10;;
31770;SDS011;18343;50.152;8.182;2023-02-27T08:22:05;3.03;;;1.85;;
31770;SDS011;18343;50.152;8.182;2023-02-27T08:24:50;4.85;;;2.60;;
31770;SDS011;18343;50.152;8.182;2023-02-27T08:27:35;3.88;;;2.15;;
31770;SDS011;18343;50.152;8.182;2023-02-27T08:30:21;3.47;;;2.10;;
31770;SDS011;18343;50.152;8.182;2023-02-27T08:33:06;2.88;;;1.80;;
31770;SDS011;18343;50.152;8.182;2023-02-27T08:35:51;3.88;;;1.63;;
31770;SDS011;18343;50.152;8.182;2023-02-27T08:38:35;4.45;;;2.03;;
31770;SDS011;18343;50.152;8.182;2023-02-27T08:41:20;5.43;;;2.45;;
31770;SDS011;18343;50.152;8.182;2023-02-27T08:44:05;9.05;;;2.15;;
31770;SDS011;18343;50.152;8.182;2023-02-27T08:46:51;5.22;;;2.40;;
31770;SDS011;18343;50.152;8.182;2023-02-27T08:49:36;4.38;;;1.98;;
31770;SDS011;18343;50.152;8.182;2023-02-27T08:52:21;2.40;;;1.70;;
31770;SDS011;18343;50.152;8.182;2023-02-27T08:55:07;4.68;;;2.40;;
31770;SDS011;18343;50.152;8.182;2023-02-27T08:57:52;4.55;;;2.10;;
31770;SDS011;18343;50.152;8.182;2023-02-27T09:00:41;4.07;;;1.92;;
31770;SDS011;18343;50.152;8.182;2023-02-27T09:03:39;5.32;;;2.25;;
31770;SDS011;18343;50.152;8.182;2023-02-27T09:06:24;3.55;;;2.20;;
31770;SDS011;18343;50.152;8.182;2023-02-27T09:09:08;5.60;;;2.10;;
31770;SDS011;18343;50.152;8.182;2023-02-27T09:11:53;2.95;;;1.95;;
31770;SDS011;18343;50.152;8.182;2023-02-27T09:14:38;3.58;;;2.22;;
31770;SDS011;18343;50.152;8.182;2023-02-27T09:17:23;8.02;;;2.97;;
31770;SDS011;18343;50.152;8.182;2023-02-27T09:20:10;6.32;;;2.50;;
31770;SDS011;18343;50.152;8.182;2023-02-27T09:22:55;7.15;;;2.85;;
31770;SDS011;18343;50.152;8.182;2023-02-27T09:25:43;5.13;;;2.30;;
31770;SDS011;18343;50.152;8.182;2023-02-27T09:28:30;6.82;;;2.60;;
31770;SDS011;18343;50.152;8.182;2023-02-27T09:31:18;5.00;;;2.63;;
31770;SDS011;18343;50.152;8.182;2023-02-27T09:34:02;3.03;;;2.10;;
31770;SDS011;18343;50.152;8.182;2023-02-27T09:36:49;3.92;;;2.25;;
31770;SDS011;18343;50.152;8.182;2023-02-27T09:39:41;4.68;;;2.38;;
31770;SDS011;18343;50.152;8.182;2023-02-27T09:42:27;3.15;;;1.90;;
31770;SDS011;18343;50.152;8.182;2023-02-27T09:45:23;2.75;;;1.90;;
31770;SDS011;18343;50.152;8.182;2023-02-27T09:48:11;7.07;;;3.00;;
31770;SDS011;18343;50.152;8.182;2023-02-27T09:51:09;3.67;;;2.30;;
31770;SDS011;18343;50.152;8.182;2023-02-27T09:53:55;3.80;;;2.10;;
31770;SDS011;18343;50.152;8.182;2023-02-27T09:56:45;5.72;;;2.08;;
31770;SDS011;18343;50.152;8.182;2023-02-27T09:59:36;2.45;;;1.63;;
31770;SDS011;18343;50.152;8.182;2023-02-27T10:02:29;2.83;;;1.67;;
31770;SDS011;18343;50.152;8.182;2023-02-27T10:05:30;7.63;;;2.03;;
31770;SDS011;18343;50.152;8.182;2023-02-27T10:08:22;2.30;;;1.45;;
31770;SDS011;18343;50.152;8.182;2023-02-27T10:11:15;5.20;;;1.58;;
31770;SDS011;18343;50.152;8.182;2023-02-27T10:14:09;3.72;;;1.80;;
31770;SDS011;18343;50.152;8.182;2023-02-27T10:17:11;4.57;;;2.08;;
31770;SDS011;18343;50.152;8.182;2023-02-27T10:20:11;4.15;;;2.38;;
31770;SDS011;18343;50.152;8.182;2023-02-27T10:23:04;4.55;;;2.03;;
31770;SDS011;18343;50.152;8.182;2023-02-27T10:25:56;2.25;;;1.52;;
31770;SDS011;18343;50.152;8.182;2023-02-27T10:28:48;3.30;;;1.55;;
31770;SDS011;18343;50.152;8.182;2023-02-27T10:31:33;4.15;;;1.63;;
31770;SDS011;18343;50.152;8.182;2023-02-27T10:34:18;4.75;;;1.63;;
31770;SDS011;18343;50.152;8.182;2023-02-27T10:37:10;4.55;;;1.92;;
31770;SDS011;18343;50.152;8.182;2023-02-27T10:39:58;3.50;;;1.95;;
31770;SDS011;18343;50.152;8.182;2023-02-27T10:42:48;4.07;;;1.90;;
31770;SDS011;18343;50.152;8.182;2023-02-27T10:45:36;8.05;;;2.15;;
31770;SDS011;18343;50.152;8.182;2023-02-27T10:48:21;5.40;;;1.90;;
31770;SDS011;18343;50.152;8.182;2023-02-27T10:51:19;4.68;;;2.00;;
31770;SDS011;18343;50.152;8.182;2023-02-27T10:54:18;5.20;;;2.92;;
31770;SDS011;18343;50.152;8.182;2023-02-27T10:57:17;8.18;;;2.33;;
31770;SDS011;18343;50.152;8.182;2023-02-27T11:00:31;3.85;;;1.98;;
31770;SDS011;18343;50.152;8.182;2023-02-27T11:03:28;3.10;;;1.70;;
31770;SDS011;18343;50.152;8.182;2023-02-27T11:06:20;9.75;;;3.13;;
31770;SDS011;18343;50.152;8.182;2023-02-27T11:09:11;4.35;;;1.60;;
31770;SDS011;18343;50.152;8.182;2023-02-27T11:12:17;5.97;;;1.73;;
31770;SDS011;18343;50.152;8.182;2023-02-27T11:15:20;1.67;;;1.25;;
31770;SDS011;18343;50.152;8.182;2023-02-27T11:18:19;5.18;;;1.65;;
31770;SDS011;18343;50.152;8.182;2023-02-27T11:24:16;4.80;;;2.45;;
31770;SDS011;18343;50.152;8.182;2023-02-27T11:27:03;3.97;;;1.90;;
31770;SDS011;18343;50.152;8.182;2023-02-27T11:30:01;7.68;;;1.70;;
31770;SDS011;18343;50.152;8.182;2023-02-27T11:32:49;2.75;;;1.40;;
31770;SDS011;18343;50.152;8.182;2023-02-27T11:35:37;2.20;;;1.63;;
31770;SDS011;18343;50.152;8.182;2023-02-27T11:38:23;2.25;;;1.17;;
31770;SDS011;18343;50.152;8.182;2023-02-27T11:41:11;3.58;;;1.50;;
31770;SDS011;18343;50.152;8.182;2023-02-27T11:43:56;3.50;;;2.00;;
31770;SDS011;18343;50.152;8.182;2023-02-27T11:46:44;2.85;;;1.10;;
31770;SDS011;18343;50.152;8.182;2023-02-27T11:49:32;11.63;;;1.83;;
31770;SDS011;18343;50.152;8.182;2023-02-27T11:52:22;2.55;;;1.35;;
31770;SDS011;18343;50.152;8.182;2023-02-27T11:55:16;4.20;;;1.23;;
31770;SDS011;18343;50.152;8.182;2023-02-27T11:58:04;2.35;;;1.33;;
31770;SDS011;18343;50.152;8.182;2023-02-27T12:00:56;1.65;;;1.17;;
31770;SDS011;18343;50.152;8.182;2023-02-27T12:03:49;4.32;;;1.23;;
31770;SDS011;18343;50.152;8.182;2023-02-27T12:06:41;4.63;;;1.30;;
31770;SDS011;18343;50.152;8.182;2023-02-27T12:09:37;2.67;;;1.30;;
31770;SDS011;18343;50.152;8.182;2023-02-27T12:12:28;2.88;;;1.35;;
31770;SDS011;18343;50.152;8.182;2023-02-27T12:15:25;3.22;;;1.02;;
31770;SDS011;18343;50.152;8.182;2023-02-27T12:18:15;5.35;;;1.40;;
31770;SDS011;18343;50.152;8.182;2023-02-27T12:21:08;1.67;;;1.02;;
31770;SDS011;18343;50.152;8.182;2023-02-27T12:23:57;6.50;;;2.20;;
31770;SDS011;18343;50.152;8.182;2023-02-27T12:26:54;2.17;;;1.00;;
31770;SDS011;18343;50.152;8.182;2023-02-27T12:29:57;2.05;;;1.10;;
31770;SDS011;18343;50.152;8.182;2023-02-27T12:32:50;2.35;;;1.10;;
31770;SDS011;18343;50.152;8.182;2023-02-27T12:35:49;3.65;;;1.23;;
31770;SDS011;18343;50.152;8.182;2023-02-27T12:38:40;5.97;;;1.77;;
31770;SDS011;18343;50.152;8.182;2023-02-27T12:41:32;2.45;;;1.20;;
31770;SDS011;18343;50.152;8.182;2023-02-27T12:44:29;1.42;;;0.90;;
31770;SDS011;18343;50.152;8.182;2023-02-27T12:47:29;3.28;;;1.20;;
31770;SDS011;18343;50.152;8.182;2023-02-27T12:50:25;2.40;;;1.13;;
31770;SDS011;18343;50.152;8.182;2023-02-27T12:53:31;4.43;;;0.90;;
31770;SDS011;18343;50.152;8.182;2023-02-27T12:56:41;3.70;;;1.00;;
31770;SDS011;18343;50.152;8.182;2023-02-27T12:59:46;2.15;;;0.80;;
31770;SDS011;18343;50.152;8.182;2023-02-27T13:02:48;6.43;;;0.80;;
31770;SDS011;18343;50.152;8.182;2023-02-27T13:05:40;3.13;;;0.88;;
31770;SDS011;18343;50.152;8.182;2023-02-27T13:11:55;1.42;;;0.98;;
31770;SDS011;18343;50.152;8.182;2023-02-27T13:14:55;2.53;;;0.90;;
31770;SDS011;18343;50.152;8.182;2023-02-27T13:17:47;2.38;;;0.70;;
31770;SDS011;18343;50.152;8.182;2023-02-27T13:20:39;1.13;;;0.68;;
31770;SDS011;18343;50.152;8.182;2023-02-27T13:23:32;1.50;;;0.65;;
31770;SDS011;18343;50.152;8.182;2023-02-27T13:26:25;1.20;;;0.90;;
31770;SDS011;18343;50.152;8.182;2023-02-27T13:29:31;0.70;;;0.50;;
31770;SDS011;18343;50.152;8.182;2023-02-27T13:32:27;3.22;;;0.93;;
31770;SDS011;18343;50.152;8.182;2023-02-27T13:35:34;3.00;;;0.63;;
31770;SDS011;18343;50.152;8.182;2023-02-27T13:38:40;3.85;;;1.02;;
31770;SDS011;18343;50.152;8.182;2023-02-27T13:41:36;2.65;;;1.27;;
31770;SDS011;18343;50.152;8.182;2023-02-27T13:47:47;1.30;;;0.93;;
31770;SDS011;18343;50.152;8.182;2023-02-27T13:50:49;3.90;;;0.80;;
31770;SDS011;18343;50.152;8.182;2023-02-27T13:53:43;1.23;;;0.90;;
31770;SDS011;18343;50.152;8.182;2023-02-27T13:56:28;2.60;;;1.20;;
31770;SDS011;18343;50.152;8.182;2023-02-27T13:59:20;2.35;;;0.70;;
31770;SDS011;18343;50.152;8.182;2023-02-27T14:08:32;0.80;;;0.73;;
31770;SDS011;18343;50.152;8.182;2023-02-27T14:11:33;2.38;;;0.95;;
31770;SDS011;18343;50.152;8.182;2023-02-27T14:17:38;2.00;;;1.08;;
31770;SDS011;18343;50.152;8.182;2023-02-27T14:23:36;1.75;;;0.82;;
31770;SDS011;18343;50.152;8.182;2023-02-27T14:26:31;1.42;;;0.90;;
31770;SDS011;18343;50.152;8.182;2023-02-27T14:29:23;1.13;;;0.80;;
31770;SDS011;18343;50.152;8.182;2023-02-27T14:32:16;0.95;;;0.80;;
31770;SDS011;18343;50.152;8.182;2023-02-27T14:35:05;1.98;;;0.82;;
31770;SDS011;18343;50.152;8.182;2023-02-27T14:38:10;1.10;;;0.80;;
31770;SDS011;18343;50.152;8.182;2023-02-27T14:41:05;0.88;;;0.63;;
31770;SDS011;18343;50.152;8.182;2023-02-27T14:44:00;2.28;;;1.13;;
31770;SDS011;18343;50.152;8.182;2023-02-27T14:46:57;2.00;;;1.17;;
31770;SDS011;18343;50.152;8.182;2023-02-27T14:49:48;4.53;;;1.23;;
31770;SDS011;18343;50.152;8.182;2023-02-27T14:52:39;1.23;;;0.80;;
31770;SDS011;18343;50.152;8.182;2023-02-27T14:55:28;2.58;;;1.42;;
31770;SDS011;18343;50.152;8.182;2023-02-27T14:58:19;1.85;;;0.85;;
31770;SDS011;18343;50.152;8.182;2023-02-27T15:01:05;2.78;;;0.90;;
31770;SDS011;18343;50.152;8.182;2023-02-27T15:03:53;2.03;;;1.08;;
31770;SDS011;18343;50.152;8.182;2023-02-27T15:06:41;0.93;;;0.75;;
31770;SDS011;18343;50.152;8.182;2023-02-27T15:09:32;2.90;;;1.10;;
31770;SDS011;18343;50.152;8.182;2023-02-27T15:12:33;1.77;;;1.00;;
31770;SDS011;18343;50.152;8.182;2023-02-27T15:15:41;1.27;;;0.90;;
31770;SDS011;18343;50.152;8.182;2023-02-27T15:18:26;3.30;;;0.90;;
31770;SDS011;18343;50.152;8.182;2023-02-27T15:21:11;1.55;;;0.73;;
31770;SDS011;18343;50.152;8.182;2023-02-27T15:23:59;1.73;;;1.00;;
31770;SDS011;18343;50.152;8.182;2023-02-27T15:27:04;3.13;;;0.80;;
31770;SDS011;18343;50.152;8.182;2023-02-27T15:30:03;1.08;;;0.93;;
31770;SDS011;18343;50.152;8.182;2023-02-27T15:32:59;0.85;;;0.70;;
31770;SDS011;18343;50.152;8.182;2023-02-27T15:35:47;1.33;;;1.02;;
31770;SDS011;18343;50.152;8.182;2023-02-27T15:38:33;1.52;;;0.88;;
31770;SDS011;18343;50.152;8.182;2023-02-27T15:41:22;3.45;;;1.20;;
31770;SDS011;18343;50.152;8.182;2023-02-27T15:44:06;6.35;;;2.33;;
31770;SDS011;18343;50.152;8.182;2023-02-27T15:46:57;6.90;;;2.33;;
31770;SDS011;18343;50.152;8.182;2023-02-27T15:49:43;10.75;;;4.18;;
31770;SDS011;18343;50.152;8.182;2023-02-27T15:52:40;4.00;;;2.10;;
31770;SDS011;18343;50.152;8.182;2023-02-27T15:55:36;3.22;;;1.15;;
31770;SDS011;18343;50.152;8.182;2023-02-27T15:58:23;1.80;;;0.68;;
31770;SDS011;18343;50.152;8.182;2023-02-27T16:01:23;1.92;;;1.30;;
31770;SDS011;18343;50.152;8.182;2023-02-27T16:10:25;1.70;;;1.10;;
31770;SDS011;18343;50.152;8.182;2023-02-27T16:13:28;4.43;;;1.10;;
31770;SDS011;18343;50.152;8.182;2023-02-27T16:20:26;1.73;;;1.15;;
31770;SDS011;18343;50.152;8.182;2023-02-27T16:23:26;1.67;;;1.00;;
31770;SDS011;18343;50.152;8.182;2023-02-27T16:26:23;2.65;;;0.82;;
31770;SDS011;18343;50.152;8.182;2023-02-27T16:29:14;1.98;;;0.80;;
31770;SDS011;18343;50.152;8.182;2023-02-27T16:32:05;2.55;;;0.90;;
31770;SDS011;18343;50.152;8.182;2023-02-27T16:35:04;1.58;;;0.90;;
31770;SDS011;18343;50.152;8.182;2023-02-27T16:41:04;1.02;;;0.80;;
31770;SDS011;18343;50.152;8.182;2023-02-27T16:44:02;1.63;;;0.85;;
31770;SDS011;18343;50.152;8.182;2023-02-27T16:46:50;1.40;;;1.17;;
31770;SDS011;18343;50.152;8.182;2023-02-27T16:49:42;2.75;;;2.08;;
31770;SDS011;18343;50.152;8.182;2023-02-27T16:52:33;3.70;;;1.25;;
31770;SDS011;18343;50.152;8.182;2023-02-27T16:55:40;1.85;;;1.55;;
31770;SDS011;18343;50.152;8.182;2023-02-27T16:58:28;3.67;;;1.45;;
31770;SDS011;18343;50.152;8.182;2023-02-27T17:01:39;4.53;;;1.83;;
31770;SDS011;18343;50.152;8.182;2023-02-27T17:11:02;13.50;;;5.90;;
31770;SDS011;18343;50.152;8.182;2023-02-27T17:13:58;3.97;;;1.80;;
31770;SDS011;18343;50.152;8.182;2023-02-27T17:16:46;6.43;;;3.60;;
31770;SDS011;18343;50.152;8.182;2023-02-27T17:19:31;3.85;;;2.63;;
31770;SDS011;18343;50.152;8.182;2023-02-27T17:22:43;6.30;;;3.03;;
31770;SDS011;18343;50.152;8.182;2023-02-27T17:25:28;2.85;;;2.55;;
31770;SDS011;18343;50.152;8.182;2023-02-27T17:28:14;3.25;;;1.70;;
31770;SDS011;18343;50.152;8.182;2023-02-27T17:30:59;2.22;;;1.63;;
31770;SDS011;18343;50.152;8.182;2023-02-27T17:33:50;1.65;;;1.30;;
31770;SDS011;18343;50.152;8.182;2023-02-27T17:36:36;2.60;;;2.08;;
31770;SDS011;18343;50.152;8.182;2023-02-27T17:39:21;2.28;;;1.70;;
31770;SDS011;18343;50.152;8.182;2023-02-27T17:42:05;2.28;;;1.38;;
31770;SDS011;18343;50.152;8.182;2023-02-27T17:44:51;4.30;;;2.10;;
31770;SDS011;18343;50.152;8.182;2023-02-27T17:47:38;4.25;;;1.70;;
31770;SDS011;18343;50.152;8.182;2023-02-27T17:50:24;3.97;;;1.52;;
31770;SDS011;18343;50.152;8.182;2023-02-27T17:53:17;2.92;;;1.73;;
31770;SDS011;18343;50.152;8.182;2023-02-27T17:56:02;11.02;;;3.35;;
31770;SDS011;18343;50.152;8.182;2023-02-27T17:58:49;3.72;;;1.52;;
31770;SDS011;18343;50.152;8.182;2023-02-27T18:01:34;4.65;;;1.73;;
31770;SDS011;18343;50.152;8.182;2023-02-27T18:04:19;1.83;;;1.30;;